Time;durP1;ratioP1;P1;durP2;ratioP2;P2;SDS_P1;SDS_P2;PMS_P1;PMS_P2;Temp;Humidity;BMP_temperature;BMP_pressure;BME280_temperature;BME280_humidity;BME280_pressure;Samples;Min_cycle;Max_cycle;Signal;HPM_P1;HPM_P2
2023/09/25 00:00:45;;;;;;;4.65;2.97;;;;;;;15.46;60.09;99905.03;5127333;28;20254;-73
2023/09/25 00:03:13;;;;;;;3.97;2.78;;;;;;;15.67;60.99;99945.53;5126931;28;20047;-73
2023/09/25 00:05:40;;;;;;;5.53;2.95;;;;;;;15.67;60.71;99951.72;5126182;28;20051;-73
2023/09/25 00:08:07;;;;;;;4.50;3.20;;;;;;;15.66;60.67;99939.34;5127423;28;20044;-73
2023/09/25 00:10:36;;;;;;;3.67;2.67;;;;;;;15.21;60.04;99864.91;5127067;28;20036;-73
2023/09/25 00:13:02;;;;;;;4.85;2.90;;;;;;;15.64;59.83;99941.22;5127510;28;20047;-73
2023/09/25 00:15:30;;;;;;;4.85;3.30;;;;;;;15.18;60.51;99857.09;5126729;28;20027;-72
2023/09/25 00:17:57;;;;;;;4.97;2.92;;;;;;;15.65;61.97;99936.75;5126958;28;20043;-73
2023/09/25 00:20:26;;;;;;;3.95;2.60;;;;;;;15.60;60.04;99933.50;5126864;28;20088;-73
2023/09/25 00:22:54;;;;;;;3.80;2.38;;;;;;;15.63;61.03;99928.81;5126844;28;20040;-73
2023/09/25 00:25:22;;;;;;;5.75;3.15;;;;;;;15.60;60.70;99923.69;5127070;28;20047;-72
2023/09/25 00:27:49;;;;;;;4.88;2.83;;;;;;;15.60;60.60;99930.84;5127134;27;20035;-72
2023/09/25 00:30:16;;;;;;;5.82;2.90;;;;;;;15.61;60.40;99927.22;5126698;28;20337;-72
2023/09/25 00:32:42;;;;;;;3.85;2.83;;;;;;;15.59;60.40;99929.97;5126917;28;20084;-72
2023/09/25 00:35:10;;;;;;;4.07;2.95;;;;;;;15.61;60.78;99927.22;5126579;28;20084;-72
2023/09/25 00:37:38;;;;;;;3.75;2.78;;;;;;;15.60;61.07;99923.69;5125750;28;20292;-72
2023/09/25 00:40:13;;;;;;;3.78;2.60;;;;;;;15.57;62.01;99915.88;5125693;28;20207;-72
2023/09/25 00:42:41;;;;;;;3.53;2.35;;;;;;;15.55;60.33;99906.25;5126826;28;20043;-72
2023/09/25 00:45:09;;;;;;;4.25;2.90;;;;;;;15.29;61.23;99865.25;5127061;28;20071;-72
2023/09/25 00:47:36;;;;;;;5.43;2.63;;;;;;;15.60;61.00;99917.47;5126693;28;20039;-72
2023/09/25 00:50:04;;;;;;;4.75;2.58;;;;;;;15.58;60.55;99920.25;5126395;28;20047;-72
2023/09/25 00:52:33;;;;;;;4.15;3.00;;;;;;;15.29;59.99;99854.56;5127024;28;20096;-73
2023/09/25 00:55:03;;;;;;;5.15;2.72;;;;;;;15.59;61.43;99905.94;5125585;28;20043;-73
2023/09/25 00:57:30;;;;;;;3.10;2.50;;;;;;;15.58;60.70;99901.56;5126549;28;20044;-74
2023/09/25 00:59:57;;;;;;;3.83;3.05;;;;;;;15.57;61.63;99897.16;5126586;28;20209;-73
2023/09/25 01:02:24;;;;;;;3.78;3.00;;;;;;;15.57;61.05;99894.50;5125491;28;20280;-74
2023/09/25 01:04:52;;;;;;;5.13;3.30;;;;;;;15.51;59.98;99880.69;5126285;28;20050;-74
2023/09/25 01:07:19;;;;;;;3.83;2.65;;;;;;;15.10;60.00;99833.56;5126525;28;20050;-73
2023/09/25 01:10:09;;;;;;;4.20;2.92;;;;;;;15.48;61.41;99892.44;5125351;28;20043;-73
2023/09/25 01:12:37;;;;;;;3.75;2.50;;;;;;;15.53;62.46;99881.44;5126617;28;20106;-73
2023/09/25 01:15:04;;;;;;;4.40;2.75;;;;;;;15.09;62.24;99810.50;5126186;28;20039;-73
2023/09/25 01:17:31;;;;;;;3.40;2.28;;;;;;;15.51;62.15;99876.22;5126372;28;20040;-73
2023/09/25 01:19:58;;;;;;;3.53;2.55;;;;;;;15.45;60.57;99881.09;5126307;28;20073;-73
2023/09/25 01:22:27;;;;;;;5.10;2.72;;;;;;;15.42;60.97;99883.97;5125727;28;20048;-74
2023/09/25 01:24:53;;;;;;;4.55;2.75;;;;;;;15.42;61.54;99875.97;5125207;28;20085;-73
2023/09/25 01:27:21;;;;;;;2.72;2.20;;;;;;;15.42;61.33;99886.66;5126111;28;20055;-73
2023/09/25 01:29:47;;;;;;;3.50;2.40;;;;;;;15.46;61.78;99886.34;5126007;28;20048;-74
2023/09/25 01:32:14;;;;;;;3.80;2.63;;;;;;;15.45;62.51;99879.28;5125091;28;20043;-73
2023/09/25 01:34:42;;;;;;;4.35;2.95;;;;;;;15.47;62.74;99881.84;5126561;28;20093;-74
2023/09/25 01:37:10;;;;;;;3.17;2.35;;;;;;;15.23;61.25;99854.97;5125875;28;20198;-74
2023/09/25 01:39:38;;;;;;;4.38;3.15;;;;;;;15.42;62.25;99873.31;5126160;28;20039;-74
2023/09/25 01:42:05;;;;;;;5.15;3.28;;;;;;;15.44;62.79;99880.25;5125282;28;20043;-73
2023/09/25 01:44:31;;;;;;;3.92;2.90;;;;;;;15.41;62.15;99877.78;5125789;28;20295;-74
2023/09/25 01:46:58;;;;;;;5.28;2.95;;;;;;;14.84;62.63;99781.91;5125794;28;20043;-74
2023/09/25 01:49:26;;;;;;;4.85;3.17;;;;;;;15.38;61.80;99878.84;5124941;28;20119;-73
2023/09/25 01:51:53;;;;;;;6.43;3.25;;;;;;;15.33;62.91;99880.97;5126054;28;20054;-74
2023/09/25 01:54:20;;;;;;;4.53;2.72;;;;;;;15.37;63.22;99877.13;5124871;28;20044;-73
2023/09/25 01:56:48;;;;;;;4.50;3.00;;;;;;;15.39;63.91;99879.69;5126050;28;20071;-73
2023/09/25 01:59:15;;;;;;;4.13;2.97;;;;;;;15.38;64.67;99878.00;5125323;28;20050;-73
2023/09/25 02:01:42;;;;;;;5.00;3.03;;;;;;;15.31;62.91;99872.19;5126011;28;20084;-73
2023/09/25 02:04:09;;;;;;;3.70;2.80;;;;;;;15.33;63.49;99872.94;5125526;28;20086;-73
2023/09/25 02:06:36;;;;;;;4.10;3.10;;;;;;;15.32;62.92;99867.72;5125655;28;20360;-73
2023/09/25 02:09:03;;;;;;;3.88;2.50;;;;;;;15.28;62.92;99860.88;5125893;28;20039;-73
2023/09/25 02:11:29;;;;;;;3.08;2.55;;;;;;;15.24;61.83;99864.69;5125890;28;20044;-73
2023/09/25 02:13:57;;;;;;;3.45;2.63;;;;;;;15.21;61.26;99867.56;5124917;28;20040;-73
2023/09/25 02:16:24;;;;;;;3.75;2.50;;;;;;;15.23;62.33;99865.66;5125814;28;20100;-73
2023/09/25 02:18:51;;;;;;;3.95;2.90;;;;;;;15.12;63.20;99834.31;5125820;28;20234;-74
2023/09/25 02:21:17;;;;;;;3.47;2.45;;;;;;;15.25;62.74;99869.06;5125189;28;20067;-73
2023/09/25 02:23:44;;;;;;;3.53;2.80;;;;;;;15.21;62.55;99864.91;5126088;28;20035;-73
2023/09/25 02:26:11;;;;;;;5.53;2.75;;;;;;;15.19;62.77;99865.00;5124636;28;20031;-73
2023/09/25 02:28:38;;;;;;;3.40;2.30;;;;;;;15.18;64.21;99867.78;5128369;28;20047;-73
2023/09/25 02:31:07;;;;;;;4.80;2.83;;;;;;;15.19;64.30;99859.66;5129008;28;20047;-72
2023/09/25 02:33:34;;;;;;;3.85;2.67;;;;;;;15.18;63.88;99854.44;5128131;28;20284;-73
2023/09/25 02:36:05;;;;;;;3.97;2.88;;;;;;;14.97;63.92;99828.19;5128419;28;20073;-72
2023/09/25 02:38:31;;;;;;;4.25;2.90;;;;;;;15.16;64.40;99851.84;5128387;28;20036;-73
2023/09/25 02:40:58;;;;;;;5.63;2.95;;;;;;;15.07;62.93;99850.66;5129381;27;20085;-73
2023/09/25 02:43:25;;;;;;;5.25;2.85;;;;;;;15.06;64.20;99853.41;5129457;28;20048;-73
2023/09/25 02:45:52;;;;;;;3.67;2.95;;;;;;;15.06;65.02;99856.09;5127917;28;20043;-73
2023/09/25 02:48:21;;;;;;;3.53;2.70;;;;;;;15.06;65.96;99859.63;5128971;28;20105;-73
2023/09/25 02:50:48;;;;;;;3.40;2.40;;;;;;;15.06;66.17;99856.09;5128868;28;20097;-73
2023/09/25 02:53:15;;;;;;;4.18;2.72;;;;;;;15.03;65.37;99857.16;5128810;28;20047;-73
2023/09/25 02:55:42;;;;;;;3.85;3.03;;;;;;;14.98;64.68;99851.25;5128245;28;20077;-73
2023/09/25 02:58:09;;;;;;;5.00;3.20;;;;;;;14.83;63.46;99856.72;5128975;28;20055;-73
2023/09/25 03:00:37;;;;;;;5.20;2.88;;;;;;;14.45;63.86;99791.50;5128438;28;20352;-73
2023/09/25 03:03:05;;;;;;;3.55;2.75;;;;;;;14.90;65.72;99860.72;5127384;28;20097;-74
2023/09/25 03:05:33;;;;;;;4.07;3.08;;;;;;;14.90;65.68;99856.22;5128594;28;20058;-73
2023/09/25 03:08:00;;;;;;;5.15;2.90;;;;;;;14.80;64.05;99854.25;5127442;28;20039;-73
2023/09/25 03:10:27;;;;;;;4.15;2.60;;;;;;;14.83;65.45;99849.59;5127634;28;20035;-73
2023/09/25 03:12:53;;;;;;;3.58;2.55;;;;;;;14.85;65.74;99847.66;5127180;28;20050;-73
2023/09/25 03:15:20;;;;;;;4.28;2.72;;;;;;;14.81;65.05;99845.31;5127264;28;20039;-73
2023/09/25 03:17:47;;;;;;;3.45;2.65;;;;;;;14.76;64.94;99840.25;5128814;28;20187;-74
2023/09/25 03:20:15;;;;;;;4.47;3.30;;;;;;;14.82;65.96;99839.88;5128475;28;20295;-73
2023/09/25 03:22:44;;;;;;;4.40;2.95;;;;;;;14.39;63.44;99791.88;5128586;28;20121;-73
2023/09/25 03:25:13;;;;;;;3.58;2.80;;;;;;;14.71;65.06;99842.38;5129012;28;20039;-73
2023/09/25 03:27:40;;;;;;;3.70;2.80;;;;;;;14.69;65.18;99852.28;5128604;28;20039;-73
2023/09/25 03:30:08;;;;;;;5.57;3.10;;;;;;;14.50;64.93;99825.88;5128183;28;20047;-74
2023/09/25 03:32:35;;;;;;;4.13;2.90;;;;;;;14.68;66.68;99845.22;5128043;28;20054;-73
2023/09/25 03:35:03;;;;;;;3.30;2.45;;;;;;;14.61;64.75;99836.78;5127811;28;20051;-73
2023/09/25 03:37:30;;;;;;;3.40;2.90;;;;;;;14.53;64.89;99833.66;5126890;28;20039;-73
2023/09/25 03:39:58;;;;;;;3.58;2.80;;;;;;;14.22;64.27;99785.91;5127555;28;20047;-73
2023/09/25 03:42:25;;;;;;;3.90;3.03;;;;;;;13.55;64.99;99681.75;5127564;28;20043;-74
2023/09/25 03:44:52;;;;;;;5.13;3.58;;;;;;;14.57;66.32;99848.56;5127536;28;20043;-73
2023/09/25 03:47:20;;;;;;;6.00;3.65;;;;;;;14.52;65.78;99863.09;5126574;28;20397;-73
2023/09/25 03:49:47;;;;;;;3.95;3.13;;;;;;;14.53;66.80;99851.47;5126481;28;20043;-74
2023/09/25 03:52:14;;;;;;;3.90;3.00;;;;;;;14.33;66.51;99834.94;5126536;28;20349;-73
2023/09/25 03:54:41;;;;;;;3.40;2.60;;;;;;;14.53;67.51;99872.81;5127510;28;20199;-73
2023/09/25 03:57:09;;;;;;;4.00;3.15;;;;;;;14.50;66.62;99875.69;5126629;28;20043;-73
2023/09/25 03:59:36;;;;;;;3.88;2.97;;;;;;;14.59;68.16;99884.00;5127792;28;20093;-73
2023/09/25 04:02:02;;;;;;;4.53;2.85;;;;;;;14.59;68.84;99877.81;5127541;28;20314;-73
2023/09/25 04:04:29;;;;;;;4.60;3.28;;;;;;;14.59;67.52;99893.81;5126857;28;20120;-74
2023/09/25 04:06:55;;;;;;;6.00;3.05;;;;;;;14.52;68.43;99890.63;5127671;28;20196;-73
2023/09/25 04:09:22;;;;;;;5.20;3.78;;;;;;;14.52;68.16;99905.78;5109448;28;20213;-74
2023/09/25 04:11:49;;;;;;;4.72;3.17;;;;;;;14.50;69.25;99916.53;5126148;28;20055;-74
2023/09/25 04:14:17;;;;;;;6.88;4.65;;;;;;;14.50;68.68;99916.53;5125958;28;20035;-74
2023/09/25 04:16:45;;;;;;;7.18;4.65;;;;;;;14.48;68.48;99926.44;5126045;28;20055;-74
2023/09/25 04:19:12;;;;;;;4.72;3.13;;;;;;;14.49;68.31;99927.31;5126787;28;20047;-73
2023/09/25 04:21:39;;;;;;;3.83;3.13;;;;;;;14.48;68.82;99920.25;5109227;28;20035;-74
2023/09/25 04:24:10;;;;;;;3.92;3.28;;;;;;;14.47;69.31;99911.41;5125985;28;20040;-74
2023/09/25 04:26:39;;;;;;;4.47;3.17;;;;;;;14.49;69.41;99917.50;5127286;28;20107;-74
2023/09/25 04:29:09;;;;;;;3.83;3.28;;;;;;;14.22;69.55;99864.06;5126617;28;20039;-74
2023/09/25 04:31:38;;;;;;;4.18;3.50;;;;;;;14.14;69.13;99869.03;5126881;28;20254;-74
2023/09/25 04:34:05;;;;;;;4.45;3.40;;;;;;;14.45;70.02;99918.66;5125640;28;20104;-74
2023/09/25 04:36:32;;;;;;;4.60;3.10;;;;;;;14.41;69.89;99915.31;5126572;28;20302;-74
2023/09/25 04:38:59;;;;;;;3.67;3.10;;;;;;;14.40;69.53;99920.72;5125591;28;20054;-74
2023/09/25 04:41:26;;;;;;;4.00;3.15;;;;;;;14.39;69.87;99927.03;5126941;28;20051;-73
2023/09/25 04:43:53;;;;;;;4.60;2.83;;;;;;;14.37;69.98;99919.13;5126631;28;20070;-73
2023/09/25 04:46:20;;;;;;;5.72;3.42;;;;;;;14.37;69.98;99926.25;5126299;27;20115;-74
2023/09/25 04:48:51;;;;;;;4.65;3.50;;;;;;;14.37;70.11;99919.13;5126590;28;20287;-74
2023/09/25 04:51:19;;;;;;;4.75;3.33;;;;;;;14.31;69.10;99919.50;5124912;28;20081;-74
2023/09/25 04:53:46;;;;;;;4.10;3.38;;;;;;;14.29;69.44;99926.72;5125320;28;20110;-74
2023/09/25 04:56:20;;;;;;;4.63;3.83;;;;;;;14.21;68.91;99953.00;5126739;28;20051;-74
2023/09/25 04:58:46;;;;;;;4.68;3.63;;;;;;;14.28;70.52;99926.81;5126106;28;20031;-74
2023/09/25 05:01:13;;;;;;;4.45;3.47;;;;;;;14.28;70.17;99917.03;5126692;28;20051;-74
2023/09/25 05:03:41;;;;;;;7.93;3.72;;;;;;;13.92;70.22;99882.81;5125850;28;20149;-74
2023/09/25 05:06:10;;;;;;;4.18;3.45;;;;;;;14.22;70.59;99917.41;5126564;28;20238;-74
2023/09/25 05:08:38;;;;;;;9.07;3.47;;;;;;;14.23;70.18;99918.25;5126084;28;20046;-74
2023/09/25 05:11:06;;;;;;;4.78;3.30;;;;;;;14.25;69.04;99911.88;5125200;28;20177;-74
2023/09/25 05:13:33;;;;;;;4.63;3.58;;;;;;;14.21;68.71;99910.34;5125718;28;20398;-74
2023/09/25 05:16:01;;;;;;;4.88;3.30;;;;;;;14.16;69.27;99922.25;5126223;28;20275;-74
2023/09/25 05:18:29;;;;;;;4.22;3.28;;;;;;;14.11;69.38;99923.38;5126249;28;20040;-74
2023/09/25 05:20:56;;;;;;;4.07;3.58;;;;;;;14.00;71.79;99890.34;5125143;28;20097;-74
2023/09/25 05:23:24;;;;;;;6.28;4.35;;;;;;;14.17;69.11;99926.63;5126406;28;20088;-75
2023/09/25 05:25:52;;;;;;;7.90;5.05;;;;;;;13.19;68.28;99774.47;5125732;28;20039;-75
2023/09/25 05:28:19;;;;;;;6.43;4.20;;;;;;;14.15;69.54;99926.72;5125337;28;20048;-74
2023/09/25 05:30:46;;;;;;;4.82;3.60;;;;;;;14.16;68.47;99935.56;5124886;28;20192;-75
2023/09/25 05:33:13;;;;;;;4.47;3.40;;;;;;;14.14;68.48;99927.66;5125802;28;20057;-75
2023/09/25 05:35:40;;;;;;;5.22;3.47;;;;;;;14.09;68.37;99929.75;5125949;28;20052;-75
2023/09/25 05:38:06;;;;;;;4.75;3.35;;;;;;;14.08;68.72;99925.38;5125905;28;20180;-75
2023/09/25 05:40:34;;;;;;;4.00;3.60;;;;;;;14.06;68.80;99920.13;5125870;28;20044;-75
2023/09/25 05:43:02;;;;;;;5.82;3.65;;;;;;;14.05;69.28;99915.75;5124767;28;20043;-75
2023/09/25 05:45:29;;;;;;;5.85;3.97;;;;;;;14.07;69.01;99919.19;5124795;28;20043;-75
2023/09/25 05:47:56;;;;;;;5.70;3.58;;;;;;;14.08;68.38;99922.72;5126035;28;20203;-75
2023/09/25 05:50:23;;;;;;;4.97;3.63;;;;;;;14.08;68.98;99917.38;5126326;28;20055;-75
2023/09/25 05:52:50;;;;;;;3.90;3.50;;;;;;;13.33;68.38;99798.47;5125862;28;20085;-75
2023/09/25 05:55:17;;;;;;;4.85;3.38;;;;;;;14.10;68.78;99927.00;5125875;28;20047;-75
2023/09/25 05:57:45;;;;;;;8.20;4.13;;;;;;;14.13;68.85;99925.94;5125819;28;20057;-75
2023/09/25 06:00:13;;;;;;;5.85;3.95;;;;;;;14.14;68.84;99925.00;5125740;28;20039;-75
2023/09/25 06:02:40;;;;;;;4.07;3.42;;;;;;;14.14;67.74;99935.66;5126189;28;20039;-75
2023/09/25 06:05:08;;;;;;;6.07;3.05;;;;;;;14.14;67.81;99935.66;5129959;28;20295;-75
2023/09/25 06:07:35;;;;;;;5.53;3.50;;;;;;;14.17;68.72;99935.47;5128461;28;20039;-75
2023/09/25 06:10:02;;;;;;;6.00;3.40;;;;;;;14.18;68.24;99942.53;5128636;28;20307;-75
2023/09/25 06:12:29;;;;;;;4.28;3.45;;;;;;;14.19;68.40;99946.91;5129528;28;20067;-75
2023/09/25 06:14:56;;;;;;;4.85;3.45;;;;;;;14.21;68.22;99945.00;5128484;28;20057;-75
2023/09/25 06:17:26;;;;;;;3.63;3.08;;;;;;;14.20;67.81;99961.94;5129211;28;20173;-75
2023/09/25 06:19:54;;;;;;;3.58;2.95;;;;;;;13.86;68.70;99912.47;5129478;28;20303;-75
2023/09/25 06:22:21;;;;;;;4.20;3.28;;;;;;;14.23;68.36;99980.44;5128191;28;20039;-75
2023/09/25 06:24:48;;;;;;;3.60;2.70;;;;;;;14.22;67.96;99978.72;5128173;28;20040;-76
2023/09/25 06:27:18;;;;;;;3.85;3.30;;;;;;;14.24;68.26;99978.63;5129631;28;20043;-75
2023/09/25 06:29:45;;;;;;;4.22;3.17;;;;;;;14.25;68.30;99964.34;5129015;28;20039;-75
2023/09/25 06:32:15;;;;;;;5.35;3.17;;;;;;;14.25;68.23;99967.00;5129372;28;20039;-75
2023/09/25 06:34:42;;;;;;;4.22;3.25;;;;;;;14.05;67.09;99944.22;5128766;28;20132;-74
2023/09/25 06:37:08;;;;;;;4.00;2.97;;;;;;;13.92;67.29;99919.25;5129610;28;20043;-74
2023/09/25 06:39:35;;;;;;;5.82;3.50;;;;;;;14.25;67.67;99961.66;5127942;28;20039;-75
2023/09/25 06:42:03;;;;;;;4.20;3.30;;;;;;;14.28;67.24;99957.00;5128581;27;20207;-74
2023/09/25 06:44:30;;;;;;;5.15;3.45;;;;;;;14.34;67.58;99953.13;5127765;28;20062;-75
2023/09/25 06:46:58;;;;;;;8.15;3.15;;;;;;;14.37;67.25;99959.13;5127878;28;20035;-75
2023/09/25 06:49:28;;;;;;;5.28;3.83;;;;;;;14.39;67.26;99953.69;5127888;28;20063;-75
2023/09/25 06:51:55;;;;;;;6.63;3.92;;;;;;;14.41;67.32;99941.97;5128935;28;20040;-75
2023/09/25 06:54:22;;;;;;;6.05;3.25;;;;;;;14.45;67.11;99951.50;5127693;28;20303;-75
2023/09/25 06:56:49;;;;;;;4.57;3.70;;;;;;;14.53;67.95;99952.84;5129104;28;20110;-74
2023/09/25 06:59:16;;;;;;;4.55;3.45;;;;;;;14.55;67.30;99941.13;5128709;28;20217;-75
2023/09/25 07:01:42;;;;;;;4.32;3.35;;;;;;;14.54;67.13;99943.88;5128574;28;20040;-75
2023/09/25 07:04:10;;;;;;;4.63;3.70;;;;;;;14.48;67.51;99944.25;5127411;28;20108;-75
2023/09/25 07:06:39;;;;;;;6.25;3.75;;;;;;;14.16;67.04;99903.59;5127434;28;20290;-75
2023/09/25 07:09:09;;;;;;;5.38;3.55;;;;;;;14.51;66.72;99960.06;5128087;28;20327;-75
2023/09/25 07:11:36;;;;;;;4.93;3.55;;;;;;;14.55;66.82;99973.13;5127334;28;20039;-75
2023/09/25 07:14:03;;;;;;;4.18;3.45;;;;;;;14.55;66.59;99957.13;5127178;28;20054;-75
2023/09/25 07:16:31;;;;;;;6.50;4.22;;;;;;;14.62;67.53;99953.19;5127878;28;20039;-75
2023/09/25 07:18:59;;;;;;;4.47;3.47;;;;;;;14.67;67.88;99950.22;5128384;28;20043;-75
2023/09/25 07:21:26;;;;;;;4.65;3.50;;;;;;;13.51;66.97;99767.25;5127884;28;20039;-75
2023/09/25 07:23:54;;;;;;;5.13;3.63;;;;;;;14.63;67.57;99968.25;5127987;28;20093;-75
2023/09/25 07:26:21;;;;;;;5.85;3.97;;;;;;;14.38;67.95;99927.97;5127116;28;20058;-74
2023/09/25 07:28:51;;;;;;;6.40;3.70;;;;;;;14.34;67.29;99945.97;5128023;28;20096;-75
2023/09/25 07:31:22;;;;;;;5.32;4.05;;;;;;;14.69;67.65;99996.34;5128076;28;20043;-75
2023/09/25 07:33:53;;;;;;;4.50;3.60;;;;;;;14.41;67.49;99957.13;5109699;28;20184;-75
2023/09/25 07:36:20;;;;;;;5.32;3.95;;;;;;;14.47;67.12;99962.06;5127905;28;20044;-75
2023/09/25 07:38:47;;;;;;;4.82;3.70;;;;;;;14.76;67.60;100008.34;5128241;27;20092;-75
2023/09/25 07:41:16;;;;;;;5.43;3.60;;;;;;;14.79;68.18;100000.16;5109739;28;20100;-75
2023/09/25 07:43:42;;;;;;;4.80;3.63;;;;;;;14.81;67.34;100006.25;5127576;28;20044;-75
2023/09/25 07:46:09;;;;;;;4.80;3.60;;;;;;;14.82;67.85;99999.97;5126643;28;20035;-75
2023/09/25 07:48:38;;;;;;;5.53;3.55;;;;;;;14.83;67.63;100001.69;5127631;28;20082;-75
2023/09/25 07:51:07;;;;;;;6.35;4.50;;;;;;;14.84;67.73;99998.06;5127861;28;20050;-75
2023/09/25 07:53:33;;;;;;;5.38;4.03;;;;;;;14.35;67.63;99939.69;5127472;28;20241;-75
2023/09/25 07:56:00;;;;;;;4.85;3.67;;;;;;;14.88;68.30;100001.41;5127456;28;20043;-75
2023/09/25 07:58:28;;;;;;;5.97;4.30;;;;;;;14.91;68.19;100012.75;5128023;28;20275;-75
2023/09/25 08:01:00;;;;;;;4.80;3.88;;;;;;;14.91;67.35;100007.41;5127765;28;20103;-75
2023/09/25 08:03:27;;;;;;;5.20;4.53;;;;;;;14.92;67.79;100011.78;5127050;28;20051;-75
2023/09/25 08:05:54;;;;;;;5.63;4.13;;;;;;;14.96;67.79;100004.44;5127672;28;20040;-75
2023/09/25 08:08:20;;;;;;;5.35;4.65;;;;;;;14.98;67.55;100002.53;5127250;28;20039;-75
2023/09/25 08:10:47;;;;;;;4.57;3.85;;;;;;;15.01;67.79;99987.19;5127014;27;20326;-75
2023/09/25 08:13:15;;;;;;;5.72;4.07;;;;;;;15.04;67.80;99972.78;5125961;28;20042;-75
2023/09/25 08:15:43;;;;;;;7.07;4.93;;;;;;;15.11;67.34;99983.94;5125776;28;20062;-75
2023/09/25 08:18:10;;;;;;;6.22;5.13;;;;;;;15.06;67.14;100002.91;5125685;28;20044;-75
2023/09/25 08:20:37;;;;;;;5.28;4.57;;;;;;;15.12;67.60;100001.66;5126496;28;20052;-75
2023/09/25 08:23:04;;;;;;;6.22;4.38;;;;;;;15.18;67.60;99996.78;5126789;28;20043;-75
2023/09/25 08:25:31;;;;;;;6.43;4.18;;;;;;;15.20;67.32;99999.34;5125573;28;20043;-75
2023/09/25 08:27:58;;;;;;;5.65;4.72;;;;;;;15.19;67.19;100006.50;5126941;28;20043;-75
2023/09/25 08:30:24;;;;;;;5.68;4.80;;;;;;;15.20;67.26;100016.22;5125628;28;20047;-75
2023/09/25 08:32:53;;;;;;;4.97;4.45;;;;;;;15.17;67.24;100021.78;5125691;28;20047;-75
2023/09/25 08:35:21;;;;;;;7.05;4.40;;;;;;;15.24;67.31;100023.09;5126646;28;20063;-75
2023/09/25 08:37:49;;;;;;;7.15;4.80;;;;;;;15.29;66.95;100020.13;5125526;28;20051;-75
2023/09/25 08:40:16;;;;;;;9.25;6.43;;;;;;;15.28;66.46;100013.06;5126474;28;20047;-75
2023/09/25 08:42:44;;;;;;;7.72;5.35;;;;;;;15.28;66.46;100021.09;5126594;28;20040;-75
2023/09/25 08:45:10;;;;;;;6.35;4.35;;;;;;;15.26;66.95;100023.84;5126709;27;20085;-75
2023/09/25 08:47:39;;;;;;;6.65;4.28;;;;;;;15.26;66.97;100034.53;5126466;28;20051;-75
2023/09/25 08:50:10;;;;;;;5.97;3.97;;;;;;;15.26;67.64;100023.00;5126501;28;20049;-75
2023/09/25 08:52:37;;;;;;;7.15;4.95;;;;;;;15.31;66.75;100026.22;5126115;28;20043;-75
2023/09/25 08:55:08;;;;;;;7.43;5.38;;;;;;;15.35;67.23;100030.41;5124840;28;20044;-75
2023/09/25 08:57:36;;;;;;;6.72;4.80;;;;;;;15.34;66.80;100026.91;5125096;28;20039;-75
2023/09/25 09:00:11;;;;;;;6.57;5.30;;;;;;;15.37;67.24;100031.19;5125344;28;20063;-75
2023/09/25 09:02:40;;;;;;;6.13;4.68;;;;;;;15.39;66.98;100022.13;5125834;28;20217;-75
2023/09/25 09:05:10;;;;;;;4.80;4.30;;;;;;;15.38;67.73;100036.41;5126506;28;20048;-75
2023/09/25 09:07:36;;;;;;;5.65;4.53;;;;;;;14.95;67.61;99957.34;5126265;28;20043;-75
2023/09/25 09:10:03;;;;;;;7.97;4.65;;;;;;;15.07;67.03;99970.78;5125156;28;20233;-75
2023/09/25 09:12:30;;;;;;;9.48;5.32;;;;;;;15.47;67.32;100015.41;5125264;28;20040;-75
2023/09/25 09:14:57;;;;;;;5.72;4.90;;;;;;;15.37;66.96;99986.63;5126243;28;20052;-75
2023/09/25 09:17:28;;;;;;;5.70;4.68;;;;;;;15.51;67.01;100012.44;5126343;28;20096;-75
2023/09/25 09:19:55;;;;;;;4.80;4.13;;;;;;;15.55;66.81;100011.28;5126780;28;20069;-75
2023/09/25 09:22:24;;;;;;;5.45;4.35;;;;;;;15.56;66.60;100018.34;5126134;28;20043;-75
2023/09/25 09:24:52;;;;;;;5.35;4.50;;;;;;;15.24;66.47;99961.69;5125623;28;20040;-75
2023/09/25 09:27:21;;;;;;;5.22;4.63;;;;;;;15.61;66.72;100026.91;5125910;28;20089;-75
2023/09/25 09:29:52;;;;;;;5.80;4.45;;;;;;;15.69;67.02;100007.75;5126416;28;20035;-75
2023/09/25 09:32:19;;;;;;;6.10;5.13;;;;;;;15.73;66.44;100011.06;5125688;28;20051;-75
2023/09/25 09:34:48;;;;;;;5.80;4.75;;;;;;;15.46;66.78;99954.94;5125554;27;20088;-75
2023/09/25 09:37:14;;;;;;;5.97;4.78;;;;;;;15.75;66.74;100010.00;5128079;28;20039;-75
2023/09/25 09:39:45;;;;;;;7.03;5.00;;;;;;;15.77;66.76;100005.41;5130098;28;20043;-75
2023/09/25 09:42:14;;;;;;;6.75;5.00;;;;;;;15.83;66.75;100006.84;5130098;28;20042;-75
2023/09/25 09:44:41;;;;;;;7.28;4.88;;;;;;;15.57;66.97;99942.59;5128924;28;20039;-75
2023/09/25 09:47:08;;;;;;;6.47;4.82;;;;;;;15.91;66.30;99993.81;5129481;28;20080;-75
2023/09/25 09:49:37;;;;;;;6.05;4.60;;;;;;;15.89;66.42;99999.25;5130031;28;20039;-75
2023/09/25 09:52:05;;;;;;;7.55;5.28;;;;;;;15.94;66.55;99994.47;5130190;28;20200;-75
2023/09/25 09:54:37;;;;;;;7.30;5.50;;;;;;;15.90;65.92;99992.97;5130169;28;20192;-75
2023/09/25 09:57:07;;;;;;;5.30;4.50;;;;;;;15.64;65.76;99943.88;5128722;28;20237;-75
2023/09/25 09:59:33;;;;;;;4.88;3.70;;;;;;;15.99;66.36;99996.81;5130026;28;20048;-75
2023/09/25 10:02:02;;;;;;;4.88;4.25;;;;;;;16.03;65.83;99991.16;5129772;28;20039;-75
2023/09/25 10:04:30;;;;;;;5.57;4.45;;;;;;;16.13;65.90;99987.88;5129299;28;20056;-75
2023/09/25 10:07:00;;;;;;;7.28;5.05;;;;;;;16.12;66.08;99996.84;5129263;28;20085;-75
2023/09/25 10:09:27;;;;;;;7.05;4.45;;;;;;;16.11;65.74;99993.31;5129556;28;20043;-75
2023/09/25 10:11:55;;;;;;;4.07;3.35;;;;;;;16.16;66.43;100003.72;5129260;28;20089;-75
2023/09/25 10:14:25;;;;;;;4.30;3.58;;;;;;;16.21;65.67;100002.44;5127893;28;20199;-76
2023/09/25 10:16:58;;;;;;;4.25;3.60;;;;;;;16.27;65.62;100011.84;5129011;28;20359;-75
2023/09/25 10:19:34;;;;;;;4.70;3.85;;;;;;;16.30;65.96;100008.97;5129742;28;20077;-75
2023/09/25 10:22:11;;;;;;;7.50;4.00;;;;;;;16.10;64.64;99964.03;5128230;28;20314;-75
2023/09/25 10:24:38;;;;;;;4.80;4.18;;;;;;;16.44;65.54;100011.56;5128972;28;20047;-75
2023/09/25 10:27:05;;;;;;;5.40;4.38;;;;;;;16.13;65.43;99972.69;5129258;28;20194;-75
2023/09/25 10:29:34;;;;;;;4.95;3.92;;;;;;;16.49;65.18;100012.09;5128225;28;20036;-75
2023/09/25 10:32:01;;;;;;;9.85;4.53;;;;;;;16.57;64.78;100012.41;5127632;28;20310;-75
2023/09/25 10:34:29;;;;;;;6.80;5.10;;;;;;;16.62;65.08;100012.97;5128678;27;20101;-75
2023/09/25 10:37:00;;;;;;;12.40;5.07;;;;;;;16.55;65.14;100009.00;5129085;28;20050;-75
2023/09/25 10:39:28;;;;;;;6.70;4.40;;;;;;;16.60;64.39;100011.34;5129002;28;20314;-75
2023/09/25 10:42:07;;;;;;;5.05;4.22;;;;;;;16.65;64.62;100011.88;5128944;27;20291;-75
2023/09/25 10:44:36;;;;;;;5.93;4.30;;;;;;;16.64;64.61;100007.50;5128585;28;20051;-75
2023/09/25 10:47:07;;;;;;;5.97;3.97;;;;;;;15.95;64.56;99889.25;5128752;28;20039;-75
2023/09/25 10:49:35;;;;;;;4.95;3.80;;;;;;;16.66;64.70;100017.16;5126894;28;20051;-75
2023/09/25 10:52:03;;;;;;;4.47;3.35;;;;;;;16.67;66.06;100008.16;5128590;28;20195;-75
2023/09/25 10:54:30;;;;;;;6.30;4.70;;;;;;;16.48;63.26;99951.53;5128496;28;20040;-75
2023/09/25 10:56:58;;;;;;;7.10;4.07;;;;;;;16.47;63.91;99946.28;5128329;28;20047;-75
2023/09/25 10:59:26;;;;;;;5.55;3.60;;;;;;;15.61;65.06;99797.16;5128720;28;20043;-75
2023/09/25 11:01:54;;;;;;;5.20;4.00;;;;;;;16.50;64.63;99946.06;5128130;28;20040;-75
2023/09/25 11:04:21;;;;;;;4.38;3.70;;;;;;;16.89;64.19;99986.09;5127210;28;20092;-75
2023/09/25 11:06:48;;;;;;;6.50;4.78;;;;;;;17.04;64.03;99991.31;5128297;28;20051;-75
2023/09/25 11:09:18;;;;;;;11.10;5.00;;;;;;;17.19;63.87;99984.84;5128108;28;20043;-75
2023/09/25 11:11:45;;;;;;;5.30;4.15;;;;;;;17.37;63.77;99982.69;5127300;28;20040;-75
2023/09/25 11:14:12;;;;;;;4.88;4.03;;;;;;;17.55;62.15;99970.63;5127312;28;20047;-75
2023/09/25 11:16:40;;;;;;;6.13;3.60;;;;;;;17.31;61.63;99917.88;5127651;28;20101;-75
2023/09/25 11:19:12;;;;;;;4.25;3.33;;;;;;;17.73;63.89;99974.63;5128278;28;20043;-75
2023/09/25 11:21:39;;;;;;;5.00;3.25;;;;;;;17.72;62.22;99972.94;5127286;28;20043;-75
2023/09/25 11:24:09;;;;;;;3.67;3.22;;;;;;;17.75;63.26;99961.97;5127140;28;20240;-75
2023/09/25 11:26:37;;;;;;;4.70;3.40;;;;;;;17.84;62.57;99980.06;5126719;28;20044;-75
2023/09/25 11:29:07;;;;;;;5.38;3.25;;;;;;;17.68;63.07;99922.34;5126997;28;20263;-75
2023/09/25 11:31:33;;;;;;;4.88;3.65;;;;;;;17.99;62.28;99955.72;5127838;28;20234;-75
2023/09/25 11:34:00;;;;;;;5.55;3.72;;;;;;;17.93;62.04;99957.91;5127878;28;20054;-75